Aeroporto :
LOGIN :

Iscrizione | Disclaimer

   EN    FR    IT 

 










Sommario :    VFR   VFR Marginale   IFR   IFR Intensivo   IFR Molto Intensivo
Visibilità : 
Base nubi : 
>= 8 km
>= 3000ft
5 / 8 km
1000 / 3000 ft
1500m / 5 km
500 / 1000 ft
800 / 1500m
200 / 500 ft
< 800m
< 200 ft
Simboli :   Temporali  Nebbia  Neve Forte  Precipitazioni Forti  Vento > 20 kt
SIGMETs :   Varie  Temporali  Ghiacco  Turbolenza  Onda orograficha  Ceneri Vulcaniche







- Altitudine del aeroporto : 117 ft
- Codice IATA : NWI
- Carte del aeroporto


EGSH - Norwich

ULTIMO METAR :
  • 222220Z AUTO 03001KT 9999 NCD 11/05 Q1030

METARs OBSOLETI :
  • 222150Z 09001KT CAVOK 11/05 Q1030 NOSIG
  • 222120Z VRB02KT CAVOK 12/04 Q1030 NOSIG
  • 222050Z 09001KT CAVOK 11/04 Q1030 NOSIG
  • 222020Z 07003KT CAVOK 12/04 Q1030 NOSIG
  • 221950Z 06002KT CAVOK 14/04 Q1030 NOSIG
  • 221920Z VRB02KT CAVOK 15/05 Q1030 NOSIG

TAF TAF EGSH
Valido dal 22 a 21 ore il 23 a 00 ore UTC


221953Z 2221/2224 VRB04KT CAVOK
ATIS : +44 1603 420 640
Nessun NOTAM noto per questo aeroporto.



MetMap, La meteo Aeronautica in un colpo d'occhio ! - Copyright ORBIFLY Dicembre 2007 - Disclaimer

ORBIFLY MET'MAP TEAM :

Programmazione e sviluppo : Alexandra Zaïnal
Concezione e sviluppo : Baudouin d'Aumeries
Co-Programmazione e sviluppo : Marc-Olivier Méhu
Supporto tecnico e logistico : Manuel Goepfert
Aiuto per la traduzione : Arnaldo La Scala

Contatto : metmap@orbifly.com




FONTI E CREDITI :

   NOAA